createdAt,value
2022-08-12T00:00:35.861Z,2.42
2022-08-12T00:07:09.308Z,2.85
2022-08-12T00:09:55.218Z,2.40
2022-08-12T00:12:40.773Z,2.80
2022-08-12T00:15:26.824Z,2.38
2022-08-12T00:18:12.659Z,2.65
2022-08-12T00:21:00.172Z,2.88
2022-08-12T00:23:44.990Z,2.40
2022-08-12T00:26:34.040Z,2.50
2022-08-12T00:29:19.213Z,2.20
2022-08-12T00:32:03.947Z,2.30
2022-08-12T00:34:51.651Z,2.17
2022-08-12T00:37:39.929Z,2.47
2022-08-12T00:40:28.722Z,2.58
2022-08-12T00:42:56.961Z,2.47
2022-08-12T00:45:23.944Z,2.30
2022-08-12T00:47:53.792Z,2.50
2022-08-12T00:50:22.527Z,2.78
2022-08-12T00:52:51.090Z,2.60
2022-08-12T00:55:18.690Z,2.60
2022-08-12T00:57:48.436Z,2.08
2022-08-12T01:00:19.204Z,2.22
2022-08-12T01:02:52.552Z,2.38
2022-08-12T01:05:40.595Z,2.58
2022-08-12T01:08:26.494Z,2.22
2022-08-12T01:11:13.720Z,2.40
2022-08-12T01:13:42.950Z,2.15
2022-08-12T01:16:09.456Z,2.33
2022-08-12T01:18:39.161Z,2.55
2022-08-12T01:21:27.334Z,2.50
2022-08-12T01:24:29.600Z,2.25
2022-08-12T01:26:56.544Z,2.33
2022-08-12T01:29:32.466Z,2.50
2022-08-12T01:32:05.262Z,2.50
2022-08-12T01:34:37.457Z,2.45
2022-08-12T01:37:07.431Z,2.60
2022-08-12T01:40:33.284Z,2.53
2022-08-12T01:42:43.759Z,2.42
2022-08-12T01:45:12.228Z,2.60
2022-08-12T01:47:50.324Z,2.38
2022-08-12T01:50:31.729Z,2.70
2022-08-12T01:53:06.169Z,2.95
2022-08-12T01:55:41.992Z,2.47
2022-08-12T01:58:57.950Z,2.55
2022-08-12T02:01:34.309Z,2.40
2022-08-12T02:04:38.901Z,2.53
2022-08-12T02:08:01.276Z,2.10
2022-08-12T02:11:17.284Z,2.92
2022-08-12T02:13:49.038Z,2.17
2022-08-12T02:16:31.227Z,2.47
2022-08-12T02:19:21.929Z,2.20
2022-08-12T02:22:08.416Z,2.70
2022-08-12T02:24:38.118Z,2.55
2022-08-12T02:27:08.165Z,2.80
2022-08-12T02:29:35.791Z,2.70
2022-08-12T02:32:03.967Z,2.42
2022-08-12T02:34:31.489Z,2.55
2022-08-12T02:37:03.636Z,2.30
2022-08-12T02:39:33.802Z,2.58
2022-08-12T02:42:03.228Z,2.50
2022-08-12T02:44:35.504Z,2.60
2022-08-12T02:47:06.166Z,2.70
2022-08-12T02:49:35.535Z,2.25
2022-08-12T02:52:03.070Z,2.63
2022-08-12T02:54:29.466Z,2.50
2022-08-12T02:56:55.873Z,2.55
2022-08-12T02:59:26.270Z,2.30
2022-08-12T03:02:03.183Z,2.47
2022-08-12T03:04:43.048Z,2.40
2022-08-12T03:07:45.905Z,2.67
2022-08-12T03:10:17.894Z,2.33
2022-08-12T03:12:53.398Z,2.10
2022-08-12T03:15:23.826Z,3.10
2022-08-12T03:18:24.073Z,2.25
2022-08-12T03:20:49.680Z,2.40
2022-08-12T03:23:23.110Z,2.33
2022-08-12T03:25:57.066Z,2.60
2022-08-12T03:28:42.454Z,2.40
2022-08-12T03:31:10.747Z,2.40
2022-08-12T03:33:39.776Z,2.65
2022-08-12T03:36:08.429Z,3.03
2022-08-12T03:38:38.383Z,2.38
2022-08-12T03:41:29.539Z,2.40
2022-08-12T03:44:25.868Z,2.80
2022-08-12T03:47:23.460Z,2.30
2022-08-12T03:50:10.372Z,2.40
2022-08-12T03:52:55.108Z,2.72
2022-08-12T03:55:39.857Z,2.53
2022-08-12T03:58:26.079Z,3.00
2022-08-12T04:00:52.711Z,2.72
2022-08-12T04:03:39.524Z,2.67
2022-08-12T04:06:08.858Z,2.65
2022-08-12T04:08:36.208Z,3.22
2022-08-12T04:11:22.064Z,2.45
2022-08-12T04:13:48.588Z,2.58
2022-08-12T04:16:16.982Z,3.00
2022-08-12T04:18:44.068Z,2.75
2022-08-12T04:21:10.749Z,2.83
2022-08-12T04:23:39.388Z,2.67
2022-08-12T04:26:06.596Z,2.72
2022-08-12T04:28:33.427Z,3.00
2022-08-12T04:30:59.936Z,3.05
2022-08-12T04:33:26.913Z,2.92
2022-08-12T04:35:54.631Z,2.35
2022-08-12T04:38:21.535Z,2.97
2022-08-12T04:40:48.385Z,3.03
2022-08-12T04:44:01.591Z,3.22
2022-08-12T04:46:02.725Z,2.55
2022-08-12T04:48:29.126Z,2.78
2022-08-12T04:50:57.681Z,2.50
2022-08-12T04:53:24.745Z,2.75
2022-08-12T04:55:52.166Z,3.05
2022-08-12T04:58:29.280Z,2.47
2022-08-12T05:00:56.288Z,3.15
2022-08-12T05:03:26.365Z,2.78
2022-08-12T05:05:53.389Z,2.70
2022-08-12T05:08:19.987Z,2.95
2022-08-12T05:10:47.539Z,2.80
2022-08-12T05:13:18.623Z,2.80
2022-08-12T05:16:02.674Z,2.83
2022-08-12T05:18:39.405Z,2.50
2022-08-12T05:21:09.982Z,2.97
2022-08-12T05:23:38.078Z,2.60
2022-08-12T05:26:04.841Z,2.67
2022-08-12T05:28:31.671Z,2.28
2022-08-12T05:31:02.005Z,2.58
2022-08-12T05:33:37.388Z,2.40
2022-08-12T05:36:07.481Z,2.60
2022-08-12T05:38:53.345Z,2.50
2022-08-12T05:41:20.426Z,2.60
2022-08-12T05:43:58.043Z,2.53
2022-08-12T05:46:25.633Z,2.35
2022-08-12T05:48:55.477Z,2.10
2022-08-12T05:51:40.130Z,2.97
2022-08-12T05:54:08.664Z,2.88
2022-08-12T05:56:36.017Z,2.53
2022-08-12T05:59:07.349Z,2.83
2022-08-12T06:02:09.138Z,2.88
2022-08-12T06:04:20.393Z,2.40
2022-08-12T06:06:51.417Z,2.30
2022-08-12T06:09:17.800Z,2.20
2022-08-12T06:12:05.807Z,2.67
2022-08-12T06:14:37.025Z,2.50
2022-08-12T06:17:04.899Z,2.35
2022-08-12T06:20:27.043Z,2.55
2022-08-12T06:22:17.899Z,2.40
2022-08-12T06:24:44.275Z,2.72
2022-08-12T06:27:11.527Z,2.38
2022-08-12T06:30:08.362Z,2.55
2022-08-12T06:32:27.455Z,2.60
2022-08-12T06:35:25.565Z,2.38
2022-08-12T06:37:51.373Z,2.45
2022-08-12T06:40:42.211Z,2.17
2022-08-12T06:45:46.286Z,2.38
2022-08-12T06:48:13.466Z,2.70
2022-08-12T06:50:40.376Z,2.20
2022-08-12T06:53:09.188Z,2.40
2022-08-12T06:55:36.156Z,2.22
2022-08-12T06:58:09.999Z,2.35
2022-08-12T07:00:37.337Z,2.40
2022-08-12T07:05:59.859Z,1.98
2022-08-12T07:08:29.063Z,2.38
2022-08-12T07:11:01.065Z,2.20
2022-08-12T07:14:11.830Z,2.30
2022-08-12T07:16:49.407Z,1.95
2022-08-12T07:19:16.629Z,2.15
2022-08-12T07:22:01.775Z,2.30
2022-08-12T07:24:28.921Z,2.00
2022-08-12T07:26:55.590Z,2.10
2022-08-12T07:29:22.855Z,2.35
2022-08-12T07:31:49.217Z,2.10
2022-08-12T07:34:17.044Z,1.90
2022-08-12T07:36:43.809Z,2.08
2022-08-12T07:39:10.814Z,2.17
2022-08-12T07:41:37.542Z,2.00
2022-08-12T07:44:07.298Z,1.83
2022-08-12T07:46:36.831Z,2.00
2022-08-12T07:49:07.410Z,1.70
2022-08-12T07:51:35.351Z,2.00
2022-08-12T07:54:03.712Z,1.65
2022-08-12T07:56:31.705Z,1.70
2022-08-12T07:59:02.963Z,1.88
2022-08-12T08:01:30.430Z,1.80
2022-08-12T08:04:18.978Z,1.83
2022-08-12T08:06:47.291Z,1.90
2022-08-12T08:09:15.636Z,2.00
2022-08-12T08:12:00.867Z,1.70
2022-08-12T08:16:57.646Z,2.10
2022-08-12T08:19:26.825Z,1.70
2022-08-12T08:21:56.782Z,1.80
2022-08-12T08:24:26.860Z,1.70
2022-08-12T08:26:56.459Z,1.90
2022-08-12T08:29:24.207Z,1.83
2022-08-12T08:31:54.581Z,1.92
2022-08-12T08:34:33.483Z,1.77
2022-08-12T08:37:10.806Z,1.90
2022-08-12T08:39:41.939Z,1.60
2022-08-12T08:42:26.728Z,1.90
2022-08-12T08:44:58.447Z,2.10
2022-08-12T08:47:25.395Z,1.83
2022-08-12T08:49:51.851Z,1.90
2022-08-12T08:52:39.126Z,1.70
2022-08-12T08:55:07.758Z,1.63
2022-08-12T08:57:43.656Z,1.70
2022-08-12T09:00:21.261Z,1.42
2022-08-12T09:02:59.121Z,1.60
2022-08-12T09:05:27.309Z,1.48
2022-08-12T09:08:08.758Z,1.77
2022-08-12T09:10:45.333Z,1.50
2022-08-12T09:14:11.253Z,1.45
2022-08-12T09:16:21.101Z,1.55
2022-08-12T09:18:52.613Z,1.50
2022-08-12T09:21:20.542Z,1.60
2022-08-12T09:23:58.431Z,1.50
2022-08-12T09:26:29.303Z,1.75
2022-08-12T09:28:57.348Z,1.88
2022-08-12T09:32:03.446Z,1.60
2022-08-12T09:34:26.031Z,1.63
2022-08-12T09:37:00.408Z,1.40
2022-08-12T09:40:01.891Z,1.60
2022-08-12T09:42:43.386Z,1.50
2022-08-12T09:45:23.636Z,1.40
2022-08-12T09:47:59.195Z,1.60
2022-08-12T09:50:27.777Z,1.33
2022-08-12T09:53:15.007Z,1.60
2022-08-12T09:56:05.560Z,1.60
2022-08-12T09:58:58.637Z,1.35
2022-08-12T10:01:23.186Z,1.52
2022-08-12T10:03:55.566Z,1.50
2022-08-12T10:06:35.918Z,1.60
2022-08-12T10:09:08.197Z,1.63
2022-08-12T10:12:11.640Z,1.48
2022-08-12T10:14:50.471Z,1.52
2022-08-12T10:17:22.547Z,1.40
2022-08-12T10:19:52.589Z,1.60
2022-08-12T10:22:49.269Z,1.55
2022-08-12T10:26:18.346Z,1.75
2022-08-12T10:28:31.033Z,1.45
2022-08-12T10:30:59.672Z,1.52
2022-08-12T10:33:31.507Z,1.30
2022-08-12T10:35:59.870Z,1.30
2022-08-12T10:38:33.437Z,1.50
2022-08-12T10:41:57.472Z,0.95
2022-08-12T10:46:49.894Z,1.50
2022-08-12T10:50:03.731Z,1.27
2022-08-12T10:52:47.124Z,1.30
2022-08-12T10:54:53.198Z,1.75
2022-08-12T10:58:14.891Z,1.42
2022-08-12T11:00:31.207Z,1.40
2022-08-12T11:04:25.038Z,1.30
2022-08-12T11:07:03.245Z,1.17
2022-08-12T11:08:43.267Z,1.63
2022-08-12T11:11:16.916Z,1.52
2022-08-12T11:13:49.005Z,1.38
2022-08-12T11:16:21.563Z,1.33
2022-08-12T11:18:55.328Z,1.08
2022-08-12T11:21:51.244Z,1.20
2022-08-12T11:24:30.484Z,1.27
2022-08-12T11:29:27.029Z,1.23
2022-08-12T11:32:13.353Z,1.20
2022-08-12T11:34:53.140Z,1.30
2022-08-12T11:37:26.499Z,1.30
2022-08-12T11:42:37.420Z,1.40
2022-08-12T11:45:06.670Z,1.30
2022-08-12T11:47:40.491Z,1.25
2022-08-12T11:50:07.851Z,1.40
2022-08-12T11:52:56.522Z,1.35
2022-08-12T11:55:24.957Z,1.55
2022-08-12T11:58:34.002Z,1.55
2022-08-12T12:03:26.490Z,1.30
2022-08-12T12:06:12.145Z,1.25
2022-08-12T12:08:47.020Z,1.15
2022-08-12T12:11:17.415Z,1.30
2022-08-12T12:14:08.482Z,1.35
2022-08-12T12:16:30.918Z,1.20
2022-08-12T12:18:59.689Z,1.38
2022-08-12T12:21:46.748Z,1.33
2022-08-12T12:24:12.595Z,1.10
2022-08-12T12:26:39.027Z,1.85
2022-08-12T12:29:08.811Z,1.05
2022-08-12T12:32:10.692Z,1.30
2022-08-12T12:34:38.290Z,1.25
2022-08-12T12:37:04.941Z,1.00
2022-08-12T12:39:55.498Z,1.10
2022-08-12T12:42:47.599Z,1.10
2022-08-12T12:45:19.722Z,1.30
2022-08-12T12:48:08.667Z,1.02
2022-08-12T12:50:45.206Z,1.08
2022-08-12T12:54:05.161Z,1.42
2022-08-12T12:56:13.348Z,1.45
2022-08-12T12:58:40.122Z,1.20
2022-08-12T13:01:27.889Z,1.20
2022-08-12T13:04:01.738Z,1.20
2022-08-12T13:06:32.007Z,1.23
2022-08-12T13:09:02.611Z,1.10
2022-08-12T13:11:35.444Z,1.13
2022-08-12T13:14:27.987Z,1.27
2022-08-12T13:16:57.538Z,1.00
2022-08-12T13:19:37.478Z,1.10
2022-08-12T13:22:19.264Z,1.20
2022-08-12T13:24:56.529Z,1.20
2022-08-12T13:27:36.401Z,1.13
2022-08-12T13:30:12.354Z,1.20
2022-08-12T13:32:40.538Z,1.30
2022-08-12T13:35:19.817Z,1.20
2022-08-12T13:37:56.024Z,1.10
2022-08-12T13:40:24.829Z,1.35
2022-08-12T13:42:57.347Z,1.17
2022-08-12T13:45:29.768Z,1.40
2022-08-12T13:48:06.206Z,1.10
2022-08-12T13:50:40.631Z,1.00
2022-08-12T13:53:24.605Z,1.27
2022-08-12T13:55:59.861Z,1.13
2022-08-12T13:58:30.690Z,1.30
2022-08-12T14:00:58.221Z,1.10
2022-08-12T14:03:28.500Z,1.25
2022-08-12T14:06:15.532Z,1.15
2022-08-12T14:08:42.815Z,1.10
2022-08-12T14:11:09.597Z,1.05
2022-08-12T14:14:03.109Z,1.17
2022-08-12T14:16:47.069Z,1.10
2022-08-12T14:19:22.735Z,1.10
2022-08-12T14:22:01.048Z,1.25
2022-08-12T14:24:34.768Z,1.10
2022-08-12T14:27:02.587Z,1.42
2022-08-12T14:29:55.673Z,1.17
2022-08-12T14:32:18.037Z,0.93
2022-08-12T14:34:46.828Z,1.25
2022-08-12T14:37:58.149Z,1.40
2022-08-12T14:40:00.431Z,0.93
2022-08-12T14:42:27.950Z,1.10
2022-08-12T14:44:59.512Z,1.52
2022-08-12T14:47:29.182Z,1.13
2022-08-12T14:50:40.856Z,1.00
2022-08-12T14:58:28.268Z,1.08
2022-08-12T15:01:17.368Z,1.13
2022-08-12T15:03:57.174Z,1.00
2022-08-12T15:06:43.718Z,1.05
2022-08-12T15:09:16.727Z,1.30
2022-08-12T15:11:54.610Z,1.13
2022-08-12T15:14:26.468Z,1.30
2022-08-12T15:16:54.170Z,1.30
2022-08-12T15:20:28.545Z,1.38
2022-08-12T15:22:35.529Z,1.23
2022-08-12T15:24:53.971Z,1.30
2022-08-12T15:27:22.333Z,1.70
2022-08-12T15:29:58.410Z,1.20
2022-08-12T15:32:32.255Z,1.17
2022-08-12T15:35:00.448Z,1.20
2022-08-12T15:38:09.005Z,1.10
2022-08-12T15:40:13.825Z,1.23
2022-08-12T15:42:40.589Z,1.20
2022-08-12T15:45:08.648Z,1.05
2022-08-12T15:47:49.981Z,1.10
2022-08-12T15:50:23.112Z,1.20
2022-08-12T15:52:51.068Z,1.50
2022-08-12T15:55:21.481Z,1.30
2022-08-12T15:57:53.546Z,1.00
2022-08-12T16:00:33.006Z,1.33
2022-08-12T16:03:04.465Z,1.15
2022-08-12T16:06:16.800Z,1.10
2022-08-12T16:08:27.792Z,1.23
2022-08-12T16:10:54.510Z,1.27
2022-08-12T16:13:25.102Z,1.20
2022-08-12T16:16:03.423Z,1.20
2022-08-12T16:18:33.205Z,1.10
2022-08-12T16:21:00.340Z,1.30
2022-08-12T16:23:51.293Z,1.33
2022-08-12T16:26:14.505Z,2.13
2022-08-12T16:28:41.767Z,1.30
2022-08-12T16:31:13.285Z,1.30
2022-08-12T16:33:59.487Z,1.60
2022-08-12T16:36:28.120Z,1.20
2022-08-12T16:38:54.508Z,1.20
2022-08-12T16:41:22.533Z,2.17
2022-08-12T16:43:49.293Z,2.00
2022-08-12T16:46:31.338Z,2.20
2022-08-12T16:48:59.569Z,2.13
2022-08-12T16:51:30.747Z,1.30
2022-08-12T16:54:04.068Z,1.10
2022-08-12T16:56:37.348Z,1.10
2022-08-12T16:59:11.973Z,1.20
2022-08-12T17:01:42.951Z,1.10
2022-08-12T17:04:09.959Z,1.00
2022-08-12T17:06:43.155Z,1.10
2022-08-12T17:09:17.997Z,1.20
2022-08-12T17:11:49.602Z,1.10
2022-08-12T17:14:17.427Z,1.20
2022-08-12T17:16:51.235Z,1.08
2022-08-12T17:19:19.562Z,1.27
2022-08-12T17:21:51.877Z,1.23
2022-08-12T17:24:32.296Z,1.10
2022-08-12T17:27:00.645Z,1.10
2022-08-12T17:30:00.404Z,1.10
2022-08-12T17:32:14.130Z,1.50
2022-08-12T17:35:00.076Z,1.13
2022-08-12T17:37:26.833Z,1.20
2022-08-12T17:40:15.173Z,1.05
2022-08-12T17:42:47.267Z,1.40
2022-08-12T17:45:19.315Z,0.95
2022-08-12T17:48:01.539Z,1.25
2022-08-12T17:50:36.665Z,1.40
2022-08-12T17:53:04.595Z,1.10
2022-08-12T17:55:44.414Z,1.20
2022-08-12T17:58:14.873Z,1.30
2022-08-12T18:00:45.905Z,5.93
2022-08-12T18:04:04.168Z,3.10
2022-08-12T18:06:13.709Z,1.80
2022-08-12T18:08:53.751Z,1.88
2022-08-12T18:12:04.665Z,1.40
2022-08-12T18:14:30.752Z,1.40
2022-08-12T18:17:01.608Z,1.27
2022-08-12T18:20:04.142Z,1.35
2022-08-12T18:22:21.782Z,1.00
2022-08-12T18:24:52.345Z,1.10
2022-08-12T18:27:43.889Z,1.63
2022-08-12T18:30:13.174Z,1.17
2022-08-12T18:32:58.702Z,0.95
2022-08-12T18:35:47.286Z,1.00
2022-08-12T18:38:16.982Z,1.30
2022-08-12T18:41:04.667Z,1.27
2022-08-12T18:43:44.705Z,1.42
2022-08-12T18:46:29.210Z,1.17
2022-08-12T18:51:45.734Z,1.30
2022-08-12T18:54:10.708Z,1.10
2022-08-12T18:56:40.400Z,1.60
2022-08-12T18:59:06.987Z,1.30
2022-08-12T19:02:19.686Z,1.23
2022-08-12T19:04:29.003Z,1.65
2022-08-12T19:06:58.975Z,1.20
2022-08-12T19:09:39.070Z,1.42
2022-08-12T19:12:42.697Z,1.58
2022-08-12T19:15:25.667Z,1.35
2022-08-12T19:18:00.532Z,1.45
2022-08-12T19:20:32.905Z,1.27
2022-08-12T19:23:07.145Z,1.40
2022-08-12T19:26:01.605Z,1.25
2022-08-12T19:28:29.873Z,1.92
2022-08-12T19:31:56.593Z,1.23
2022-08-12T19:34:47.023Z,1.40
2022-08-12T19:37:09.098Z,1.35
2022-08-12T19:40:08.188Z,1.30
2022-08-12T19:42:27.935Z,1.33
2022-08-12T19:45:01.722Z,1.33
2022-08-12T19:47:38.609Z,1.20
2022-08-12T19:50:06.511Z,1.30
2022-08-12T19:52:33.880Z,1.10
2022-08-12T19:55:02.154Z,1.25
2022-08-12T19:57:30.047Z,1.13
2022-08-12T20:00:03.529Z,1.00
2022-08-12T20:06:03.541Z,1.45
2022-08-12T20:07:57.145Z,1.30
2022-08-12T20:10:35.356Z,1.70
2022-08-12T20:13:19.032Z,1.40
2022-08-12T20:15:51.007Z,1.10
2022-08-12T20:18:44.319Z,1.42
2022-08-12T20:21:15.914Z,1.40
2022-08-12T20:23:59.803Z,1.40
2022-08-12T20:26:27.589Z,1.25
2022-08-12T20:28:54.746Z,1.23
2022-08-12T20:31:21.140Z,1.38
2022-08-12T20:33:55.777Z,1.10
2022-08-12T20:36:41.117Z,1.20
2022-08-12T20:39:23.472Z,1.10
2022-08-12T20:42:04.491Z,1.13
2022-08-12T20:44:39.797Z,1.10
2022-08-12T20:47:17.868Z,1.27
2022-08-12T20:49:46.000Z,1.20
2022-08-12T20:52:15.210Z,1.10
2022-08-12T20:54:52.377Z,1.70
2022-08-12T20:57:22.452Z,1.23
2022-08-12T20:59:51.807Z,1.10
2022-08-12T21:02:24.656Z,1.10
2022-08-12T21:05:19.785Z,1.27
2022-08-12T21:07:52.372Z,1.35
2022-08-12T21:10:20.943Z,1.20
2022-08-12T21:12:48.166Z,1.40
2022-08-12T21:15:17.455Z,1.20
2022-08-12T21:18:11.198Z,1.38
2022-08-12T21:20:50.579Z,1.30
2022-08-12T21:23:19.132Z,1.50
2022-08-12T21:25:46.047Z,1.30
2022-08-12T21:28:14.068Z,1.40
2022-08-12T21:31:11.120Z,1.10
2022-08-12T21:33:31.313Z,1.35
2022-08-12T21:35:58.154Z,1.20
2022-08-12T21:38:26.351Z,1.30
2022-08-12T21:41:01.591Z,1.50
2022-08-12T21:43:40.311Z,1.20
2022-08-12T21:46:15.020Z,1.30
2022-08-12T21:49:04.588Z,1.30
2022-08-12T21:51:48.950Z,1.25
2022-08-12T21:54:22.515Z,1.38
2022-08-12T21:56:52.111Z,1.33
2022-08-12T21:59:21.713Z,1.25
2022-08-12T22:01:49.696Z,1.20
2022-08-12T22:04:36.347Z,1.13
2022-08-12T22:07:03.655Z,1.40
2022-08-12T22:09:42.538Z,1.50
2022-08-12T22:12:28.460Z,1.40
2022-08-12T22:14:54.903Z,1.33
2022-08-12T22:17:21.276Z,1.63
2022-08-12T22:19:50.388Z,1.50
2022-08-12T22:22:16.860Z,1.40
2022-08-12T22:24:47.452Z,1.55
2022-08-12T22:27:31.513Z,1.48
2022-08-12T22:30:20.025Z,1.58
2022-08-12T22:32:51.531Z,1.60
2022-08-12T22:38:26.393Z,1.52
2022-08-12T22:41:01.069Z,2.10
2022-08-12T22:44:00.469Z,1.67
2022-08-12T22:46:34.634Z,1.23
2022-08-12T22:49:01.110Z,1.88
2022-08-12T22:51:28.860Z,1.30
2022-08-12T22:54:35.809Z,1.30
2022-08-12T22:57:01.877Z,1.40
2022-08-12T22:59:51.208Z,1.30
2022-08-12T23:02:17.287Z,1.30
2022-08-12T23:04:56.347Z,1.38
2022-08-12T23:07:24.273Z,1.50
2022-08-12T23:09:50.947Z,1.27
2022-08-12T23:12:41.311Z,1.50
2022-08-12T23:15:14.131Z,1.25
2022-08-12T23:17:41.763Z,1.50
2022-08-12T23:20:11.109Z,1.30
2022-08-12T23:22:37.960Z,1.55
2022-08-12T23:25:04.629Z,1.40
2022-08-12T23:27:51.850Z,1.73
2022-08-12T23:30:25.271Z,1.45
2022-08-12T23:33:00.507Z,1.40
2022-08-12T23:35:45.786Z,1.63
2022-08-12T23:38:30.810Z,1.20
2022-08-12T23:41:00.710Z,1.67
2022-08-12T23:43:39.777Z,1.50
2022-08-12T23:46:13.155Z,1.40
2022-08-12T23:48:48.182Z,1.83
2022-08-12T23:51:22.027Z,1.60
2022-08-12T23:53:50.505Z,1.38
2022-08-12T23:56:16.947Z,1.70
2022-08-12T23:58:52.448Z,1.60
